sensor_id;sensor_type;location;lat;lon;timestamp;P1;durP1;ratioP1;P2;durP2;ratioP2
38262;SDS011;24054;50.128;19.730;2022-12-18T00:02:17;22.52;;;15.65;;
38262;SDS011;24054;50.128;19.730;2022-12-18T00:04:44;22.52;;;16.00;;
38262;SDS011;24054;50.128;19.730;2022-12-18T00:07:11;23.30;;;16.33;;
38262;SDS011;24054;50.128;19.730;2022-12-18T00:09:38;21.90;;;15.77;;
38262;SDS011;24054;50.128;19.730;2022-12-18T00:12:05;23.23;;;16.02;;
38262;SDS011;24054;50.128;19.730;2022-12-18T00:14:34;22.77;;;15.88;;
38262;SDS011;24054;50.128;19.730;2022-12-18T00:17:01;23.13;;;15.93;;
38262;SDS011;24054;50.128;19.730;2022-12-18T00:19:28;21.88;;;15.40;;
38262;SDS011;24054;50.128;19.730;2022-12-18T00:21:55;23.63;;;15.93;;
38262;SDS011;24054;50.128;19.730;2022-12-18T00:24:23;20.38;;;15.05;;
38262;SDS011;24054;50.128;19.730;2022-12-18T00:26:50;24.08;;;16.20;;
38262;SDS011;24054;50.128;19.730;2022-12-18T00:29:17;21.70;;;15.23;;
38262;SDS011;24054;50.128;19.730;2022-12-18T00:31:47;22.30;;;15.00;;
38262;SDS011;24054;50.128;19.730;2022-12-18T00:34:14;21.80;;;14.80;;
38262;SDS011;24054;50.128;19.730;2022-12-18T00:36:41;24.55;;;15.43;;
38262;SDS011;24054;50.128;19.730;2022-12-18T00:39:09;20.73;;;14.77;;
38262;SDS011;24054;50.128;19.730;2022-12-18T00:41:37;19.40;;;14.63;;
38262;SDS011;24054;50.128;19.730;2022-12-18T00:44:21;21.13;;;15.38;;
38262;SDS011;24054;50.128;19.730;2022-12-18T00:46:50;21.50;;;15.05;;
38262;SDS011;24054;50.128;19.730;2022-12-18T00:49:17;21.38;;;15.10;;
38262;SDS011;24054;50.128;19.730;2022-12-18T00:51:46;20.67;;;15.20;;
38262;SDS011;24054;50.128;19.730;2022-12-18T00:54:13;19.75;;;14.35;;
38262;SDS011;24054;50.128;19.730;2022-12-18T00:56:40;20.13;;;14.85;;
38262;SDS011;24054;50.128;19.730;2022-12-18T00:59:07;22.13;;;14.75;;
38262;SDS011;24054;50.128;19.730;2022-12-18T01:01:34;21.15;;;14.73;;
38262;SDS011;24054;50.128;19.730;2022-12-18T01:04:03;19.70;;;13.77;;
38262;SDS011;24054;50.128;19.730;2022-12-18T01:06:31;19.40;;;13.70;;
38262;SDS011;24054;50.128;19.730;2022-12-18T01:08:58;17.20;;;13.52;;
38262;SDS011;24054;50.128;19.730;2022-12-18T01:11:25;20.40;;;14.30;;
38262;SDS011;24054;50.128;19.730;2022-12-18T01:13:52;20.15;;;13.70;;
38262;SDS011;24054;50.128;19.730;2022-12-18T01:16:20;18.17;;;13.65;;
38262;SDS011;24054;50.128;19.730;2022-12-18T01:18:47;20.05;;;14.52;;
38262;SDS011;24054;50.128;19.730;2022-12-18T01:21:18;20.02;;;14.90;;
38262;SDS011;24054;50.128;19.730;2022-12-18T01:23:45;19.17;;;14.02;;
38262;SDS011;24054;50.128;19.730;2022-12-18T01:26:14;19.73;;;13.95;;
38262;SDS011;24054;50.128;19.730;2022-12-18T01:28:42;20.02;;;13.85;;
38262;SDS011;24054;50.128;19.730;2022-12-18T01:31:10;21.45;;;14.00;;
38262;SDS011;24054;50.128;19.730;2022-12-18T01:33:39;17.83;;;13.40;;
38262;SDS011;24054;50.128;19.730;2022-12-18T01:36:06;18.55;;;13.63;;
38262;SDS011;24054;50.128;19.730;2022-12-18T01:38:34;18.48;;;13.32;;
38262;SDS011;24054;50.128;19.730;2022-12-18T01:41:01;17.38;;;12.50;;
38262;SDS011;24054;50.128;19.730;2022-12-18T01:46:15;19.67;;;13.18;;
38262;SDS011;24054;50.128;19.730;2022-12-18T01:48:43;16.35;;;12.52;;
38262;SDS011;24054;50.128;19.730;2022-12-18T01:51:13;17.27;;;13.05;;
38262;SDS011;24054;50.128;19.730;2022-12-18T01:53:41;17.13;;;12.57;;
38262;SDS011;24054;50.128;19.730;2022-12-18T01:56:12;17.00;;;12.50;;
38262;SDS011;24054;50.128;19.730;2022-12-18T01:58:43;18.25;;;13.75;;
38262;SDS011;24054;50.128;19.730;2022-12-18T02:01:16;18.80;;;13.30;;
38262;SDS011;24054;50.128;19.730;2022-12-18T02:03:44;17.45;;;12.68;;
38262;SDS011;24054;50.128;19.730;2022-12-18T02:06:13;16.65;;;12.05;;
38262;SDS011;24054;50.128;19.730;2022-12-18T02:08:47;18.80;;;13.23;;
38262;SDS011;24054;50.128;19.730;2022-12-18T02:11:22;17.02;;;12.93;;
38262;SDS011;24054;50.128;19.730;2022-12-18T02:13:57;18.35;;;13.30;;
38262;SDS011;24054;50.128;19.730;2022-12-18T02:16:32;17.52;;;13.27;;
38262;SDS011;24054;50.128;19.730;2022-12-18T02:19:06;18.30;;;12.77;;
38262;SDS011;24054;50.128;19.730;2022-12-18T02:21:49;15.98;;;11.57;;
38262;SDS011;24054;50.128;19.730;2022-12-18T02:24:28;17.33;;;12.77;;
38262;SDS011;24054;50.128;19.730;2022-12-18T02:27:01;15.15;;;12.75;;
38262;SDS011;24054;50.128;19.730;2022-12-18T02:29:32;15.13;;;12.07;;
38262;SDS011;24054;50.128;19.730;2022-12-18T02:32:05;19.13;;;13.25;;
38262;SDS011;24054;50.128;19.730;2022-12-18T02:34:37;14.65;;;11.73;;
38262;SDS011;24054;50.128;19.730;2022-12-18T02:37:06;16.35;;;11.93;;
38262;SDS011;24054;50.128;19.730;2022-12-18T02:39:37;16.40;;;12.15;;
38262;SDS011;24054;50.128;19.730;2022-12-18T02:42:08;16.30;;;12.57;;
38262;SDS011;24054;50.128;19.730;2022-12-18T02:44:41;16.80;;;12.23;;
38262;SDS011;24054;50.128;19.730;2022-12-18T02:47:09;16.52;;;12.25;;
38262;SDS011;24054;50.128;19.730;2022-12-18T02:49:40;17.73;;;12.00;;
38262;SDS011;24054;50.128;19.730;2022-12-18T02:52:17;15.15;;;12.00;;
38262;SDS011;24054;50.128;19.730;2022-12-18T02:55:00;15.38;;;11.60;;
38262;SDS011;24054;50.128;19.730;2022-12-18T02:57:42;15.63;;;12.20;;
38262;SDS011;24054;50.128;19.730;2022-12-18T03:00:12;17.70;;;13.00;;
38262;SDS011;24054;50.128;19.730;2022-12-18T03:02:43;16.20;;;12.52;;
38262;SDS011;24054;50.128;19.730;2022-12-18T03:05:16;16.08;;;11.43;;
38262;SDS011;24054;50.128;19.730;2022-12-18T03:07:49;15.15;;;11.50;;
38262;SDS011;24054;50.128;19.730;2022-12-18T03:10:19;17.10;;;12.25;;
38262;SDS011;24054;50.128;19.730;2022-12-18T03:12:53;16.88;;;12.93;;
38262;SDS011;24054;50.128;19.730;2022-12-18T03:15:27;15.02;;;11.45;;
38262;SDS011;24054;50.128;19.730;2022-12-18T03:18:08;16.00;;;11.55;;
38262;SDS011;24054;50.128;19.730;2022-12-18T03:20:39;16.80;;;11.82;;
38262;SDS011;24054;50.128;19.730;2022-12-18T03:23:11;15.95;;;11.48;;
38262;SDS011;24054;50.128;19.730;2022-12-18T03:25:42;16.58;;;11.65;;
38262;SDS011;24054;50.128;19.730;2022-12-18T03:28:12;15.48;;;11.63;;
38262;SDS011;24054;50.128;19.730;2022-12-18T03:30:42;16.92;;;12.27;;
38262;SDS011;24054;50.128;19.730;2022-12-18T03:33:14;14.70;;;10.95;;
38262;SDS011;24054;50.128;19.730;2022-12-18T03:35:45;15.93;;;11.85;;
38262;SDS011;24054;50.128;19.730;2022-12-18T03:38:12;17.05;;;11.60;;
38262;SDS011;24054;50.128;19.730;2022-12-18T03:40:43;14.40;;;10.73;;
38262;SDS011;24054;50.128;19.730;2022-12-18T03:43:20;15.57;;;11.55;;
38262;SDS011;24054;50.128;19.730;2022-12-18T03:45:57;15.23;;;10.88;;
38262;SDS011;24054;50.128;19.730;2022-12-18T03:48:31;15.98;;;11.57;;
38262;SDS011;24054;50.128;19.730;2022-12-18T03:51:05;16.77;;;11.73;;
38262;SDS011;24054;50.128;19.730;2022-12-18T03:53:36;16.33;;;11.43;;
38262;SDS011;24054;50.128;19.730;2022-12-18T03:56:08;16.40;;;11.40;;
38262;SDS011;24054;50.128;19.730;2022-12-18T03:58:39;16.50;;;11.85;;
38262;SDS011;24054;50.128;19.730;2022-12-18T04:01:07;16.55;;;11.90;;
38262;SDS011;24054;50.128;19.730;2022-12-18T04:03:37;14.85;;;11.05;;
38262;SDS011;24054;50.128;19.730;2022-12-18T04:06:05;14.95;;;10.85;;
38262;SDS011;24054;50.128;19.730;2022-12-18T04:08:33;15.27;;;11.18;;
38262;SDS011;24054;50.128;19.730;2022-12-18T04:11:01;17.25;;;12.70;;
38262;SDS011;24054;50.128;19.730;2022-12-18T04:13:29;15.38;;;11.02;;
38262;SDS011;24054;50.128;19.730;2022-12-18T04:16:00;16.02;;;11.10;;
38262;SDS011;24054;50.128;19.730;2022-12-18T04:18:27;15.32;;;11.52;;
38262;SDS011;24054;50.128;19.730;2022-12-18T04:20:54;15.18;;;10.98;;
38262;SDS011;24054;50.128;19.730;2022-12-18T04:23:21;15.52;;;11.13;;
38262;SDS011;24054;50.128;19.730;2022-12-18T04:25:48;15.73;;;11.48;;
38262;SDS011;24054;50.128;19.730;2022-12-18T04:28:15;16.17;;;11.10;;
38262;SDS011;24054;50.128;19.730;2022-12-18T04:30:42;15.23;;;11.55;;
38262;SDS011;24054;50.128;19.730;2022-12-18T04:33:10;14.75;;;10.85;;
38262;SDS011;24054;50.128;19.730;2022-12-18T04:35:39;14.63;;;10.90;;
38262;SDS011;24054;50.128;19.730;2022-12-18T04:38:07;16.58;;;11.50;;
38262;SDS011;24054;50.128;19.730;2022-12-18T04:40:36;14.95;;;11.43;;
38262;SDS011;24054;50.128;19.730;2022-12-18T04:43:03;14.15;;;10.75;;
38262;SDS011;24054;50.128;19.730;2022-12-18T04:45:31;17.40;;;12.02;;
38262;SDS011;24054;50.128;19.730;2022-12-18T04:47:58;15.32;;;11.57;;
38262;SDS011;24054;50.128;19.730;2022-12-18T04:50:26;15.55;;;11.18;;
38262;SDS011;24054;50.128;19.730;2022-12-18T04:52:54;15.60;;;11.57;;
38262;SDS011;24054;50.128;19.730;2022-12-18T04:55:21;15.75;;;11.52;;
38262;SDS011;24054;50.128;19.730;2022-12-18T04:57:48;13.27;;;10.63;;
38262;SDS011;24054;50.128;19.730;2022-12-18T05:00:15;14.63;;;10.77;;
38262;SDS011;24054;50.128;19.730;2022-12-18T05:02:42;13.90;;;11.27;;
38262;SDS011;24054;50.128;19.730;2022-12-18T05:05:09;14.73;;;10.85;;
38262;SDS011;24054;50.128;19.730;2022-12-18T05:07:38;14.50;;;11.07;;
38262;SDS011;24054;50.128;19.730;2022-12-18T05:10:05;15.65;;;11.57;;
38262;SDS011;24054;50.128;19.730;2022-12-18T05:12:33;15.60;;;11.52;;
38262;SDS011;24054;50.128;19.730;2022-12-18T05:15:20;15.23;;;11.30;;
38262;SDS011;24054;50.128;19.730;2022-12-18T05:17:47;15.02;;;11.85;;
38262;SDS011;24054;50.128;19.730;2022-12-18T05:20:14;15.82;;;11.63;;
38262;SDS011;24054;50.128;19.730;2022-12-18T05:22:42;16.02;;;11.60;;
38262;SDS011;24054;50.128;19.730;2022-12-18T05:25:09;16.23;;;11.32;;
38262;SDS011;24054;50.128;19.730;2022-12-18T05:27:36;14.52;;;10.75;;
38262;SDS011;24054;50.128;19.730;2022-12-18T05:30:03;16.45;;;11.88;;
38262;SDS011;24054;50.128;19.730;2022-12-18T05:32:31;14.43;;;10.82;;
38262;SDS011;24054;50.128;19.730;2022-12-18T05:34:58;16.95;;;12.15;;
38262;SDS011;24054;50.128;19.730;2022-12-18T05:37:24;14.15;;;11.35;;
38262;SDS011;24054;50.128;19.730;2022-12-18T05:39:53;14.93;;;10.93;;
38262;SDS011;24054;50.128;19.730;2022-12-18T05:42:20;13.98;;;10.82;;
38262;SDS011;24054;50.128;19.730;2022-12-18T05:44:47;16.38;;;11.55;;
38262;SDS011;24054;50.128;19.730;2022-12-18T05:47:14;16.73;;;11.90;;
38262;SDS011;24054;50.128;19.730;2022-12-18T05:49:41;15.02;;;11.38;;
38262;SDS011;24054;50.128;19.730;2022-12-18T05:52:08;15.60;;;11.02;;
38262;SDS011;24054;50.128;19.730;2022-12-18T05:54:35;16.63;;;11.98;;
38262;SDS011;24054;50.128;19.730;2022-12-18T05:57:03;16.50;;;12.02;;
38262;SDS011;24054;50.128;19.730;2022-12-18T05:59:30;14.13;;;11.00;;
38262;SDS011;24054;50.128;19.730;2022-12-18T06:01:57;17.92;;;12.02;;
38262;SDS011;24054;50.128;19.730;2022-12-18T06:04:26;15.60;;;11.68;;
38262;SDS011;24054;50.128;19.730;2022-12-18T06:06:57;15.95;;;11.60;;
38262;SDS011;24054;50.128;19.730;2022-12-18T06:09:25;14.82;;;11.10;;
38262;SDS011;24054;50.128;19.730;2022-12-18T06:11:52;15.85;;;11.10;;
38262;SDS011;24054;50.128;19.730;2022-12-18T06:14:20;13.38;;;10.63;;
38262;SDS011;24054;50.128;19.730;2022-12-18T06:16:47;16.38;;;11.80;;
38262;SDS011;24054;50.128;19.730;2022-12-18T06:19:16;16.33;;;10.30;;
38262;SDS011;24054;50.128;19.730;2022-12-18T06:21:43;15.43;;;10.70;;
38262;SDS011;24054;50.128;19.730;2022-12-18T06:24:11;14.20;;;10.10;;
38262;SDS011;24054;50.128;19.730;2022-12-18T06:26:38;13.02;;;10.32;;
38262;SDS011;24054;50.128;19.730;2022-12-18T06:29:06;16.13;;;10.93;;
38262;SDS011;24054;50.128;19.730;2022-12-18T06:31:34;15.18;;;10.60;;
38262;SDS011;24054;50.128;19.730;2022-12-18T06:34:02;14.88;;;9.65;;
38262;SDS011;24054;50.128;19.730;2022-12-18T06:36:29;13.75;;;10.32;;
38262;SDS011;24054;50.128;19.730;2022-12-18T06:38:57;14.88;;;10.63;;
38262;SDS011;24054;50.128;19.730;2022-12-18T06:41:24;15.15;;;10.40;;
38262;SDS011;24054;50.128;19.730;2022-12-18T06:43:51;13.38;;;9.95;;
38262;SDS011;24054;50.128;19.730;2022-12-18T06:46:18;15.05;;;10.35;;
38262;SDS011;24054;50.128;19.730;2022-12-18T06:48:50;14.52;;;10.88;;
38262;SDS011;24054;50.128;19.730;2022-12-18T06:51:17;13.52;;;10.70;;
38262;SDS011;24054;50.128;19.730;2022-12-18T06:53:45;14.40;;;9.88;;
38262;SDS011;24054;50.128;19.730;2022-12-18T06:56:13;13.85;;;10.40;;
38262;SDS011;24054;50.128;19.730;2022-12-18T06:58:40;13.63;;;10.07;;
38262;SDS011;24054;50.128;19.730;2022-12-18T07:01:09;16.30;;;10.80;;
38262;SDS011;24054;50.128;19.730;2022-12-18T07:03:38;13.88;;;9.80;;
38262;SDS011;24054;50.128;19.730;2022-12-18T07:06:11;15.20;;;11.02;;
38262;SDS011;24054;50.128;19.730;2022-12-18T07:08:39;17.05;;;10.98;;
38262;SDS011;24054;50.128;19.730;2022-12-18T07:11:06;13.10;;;9.45;;
38262;SDS011;24054;50.128;19.730;2022-12-18T07:13:33;16.52;;;10.23;;
38262;SDS011;24054;50.128;19.730;2022-12-18T07:16:04;16.35;;;10.80;;
38262;SDS011;24054;50.128;19.730;2022-12-18T07:18:33;17.25;;;11.38;;
38262;SDS011;24054;50.128;19.730;2022-12-18T07:21:02;19.83;;;12.60;;
38262;SDS011;24054;50.128;19.730;2022-12-18T07:23:32;21.50;;;14.02;;
38262;SDS011;24054;50.128;19.730;2022-12-18T07:26:01;31.08;;;15.43;;
38262;SDS011;24054;50.128;19.730;2022-12-18T07:30:56;28.55;;;16.05;;
38262;SDS011;24054;50.128;19.730;2022-12-18T07:33:24;27.55;;;15.95;;
38262;SDS011;24054;50.128;19.730;2022-12-18T07:35:51;29.70;;;17.90;;
38262;SDS011;24054;50.128;19.730;2022-12-18T07:38:18;30.98;;;17.30;;
38262;SDS011;24054;50.128;19.730;2022-12-18T07:40:46;29.05;;;16.05;;
38262;SDS011;24054;50.128;19.730;2022-12-18T07:43:13;28.70;;;16.48;;
38262;SDS011;24054;50.128;19.730;2022-12-18T07:45:41;28.77;;;16.88;;
38262;SDS011;24054;50.128;19.730;2022-12-18T07:48:08;34.40;;;17.00;;
38262;SDS011;24054;50.128;19.730;2022-12-18T07:50:36;27.25;;;16.55;;
38262;SDS011;24054;50.128;19.730;2022-12-18T07:53:03;28.50;;;17.23;;
38262;SDS011;24054;50.128;19.730;2022-12-18T07:55:30;31.08;;;18.23;;
38262;SDS011;24054;50.128;19.730;2022-12-18T07:58:01;25.35;;;16.00;;
38262;SDS011;24054;50.128;19.730;2022-12-18T08:00:28;29.45;;;17.25;;
38262;SDS011;24054;50.128;19.730;2022-12-18T08:02:57;26.80;;;16.90;;
38262;SDS011;24054;50.128;19.730;2022-12-18T08:05:25;27.85;;;16.60;;
38262;SDS011;24054;50.128;19.730;2022-12-18T08:07:52;27.83;;;16.80;;
38262;SDS011;24054;50.128;19.730;2022-12-18T08:10:21;26.30;;;16.75;;
38262;SDS011;24054;50.128;19.730;2022-12-18T08:12:49;26.60;;;16.45;;
38262;SDS011;24054;50.128;19.730;2022-12-18T08:15:18;28.92;;;16.77;;
38262;SDS011;24054;50.128;19.730;2022-12-18T08:17:45;27.33;;;16.27;;
38262;SDS011;24054;50.128;19.730;2022-12-18T08:20:12;25.95;;;16.08;;
38262;SDS011;24054;50.128;19.730;2022-12-18T08:22:40;23.33;;;15.07;;
38262;SDS011;24054;50.128;19.730;2022-12-18T08:25:08;28.63;;;16.33;;
38262;SDS011;24054;50.128;19.730;2022-12-18T08:27:35;23.40;;;14.98;;
38262;SDS011;24054;50.128;19.730;2022-12-18T08:30:03;26.45;;;17.00;;
38262;SDS011;24054;50.128;19.730;2022-12-18T08:32:32;26.83;;;15.30;;
38262;SDS011;24054;50.128;19.730;2022-12-18T08:34:59;23.42;;;15.27;;
38262;SDS011;24054;50.128;19.730;2022-12-18T08:37:27;25.15;;;14.10;;
38262;SDS011;24054;50.128;19.730;2022-12-18T08:39:54;23.80;;;15.20;;
38262;SDS011;24054;50.128;19.730;2022-12-18T08:42:21;24.75;;;15.90;;
38262;SDS011;24054;50.128;19.730;2022-12-18T08:45:05;23.55;;;15.40;;
38262;SDS011;24054;50.128;19.730;2022-12-18T08:47:35;23.75;;;15.20;;
38262;SDS011;24054;50.128;19.730;2022-12-18T08:50:02;25.13;;;15.68;;
38262;SDS011;24054;50.128;19.730;2022-12-18T08:52:31;24.15;;;14.82;;
38262;SDS011;24054;50.128;19.730;2022-12-18T08:54:58;24.45;;;14.90;;
38262;SDS011;24054;50.128;19.730;2022-12-18T08:57:25;22.08;;;14.23;;
38262;SDS011;24054;50.128;19.730;2022-12-18T08:59:53;26.45;;;16.05;;
38262;SDS011;24054;50.128;19.730;2022-12-18T09:02:20;22.20;;;15.65;;
38262;SDS011;24054;50.128;19.730;2022-12-18T09:04:49;24.40;;;14.55;;
38262;SDS011;24054;50.128;19.730;2022-12-18T09:07:16;22.92;;;14.82;;
38262;SDS011;24054;50.128;19.730;2022-12-18T09:09:43;24.60;;;15.43;;
38262;SDS011;24054;50.128;19.730;2022-12-18T09:12:10;21.40;;;14.40;;
38262;SDS011;24054;50.128;19.730;2022-12-18T09:14:37;21.67;;;14.13;;
38262;SDS011;24054;50.128;19.730;2022-12-18T09:17:05;22.77;;;14.27;;
38262;SDS011;24054;50.128;19.730;2022-12-18T09:19:32;22.40;;;15.32;;
38262;SDS011;24054;50.128;19.730;2022-12-18T09:22:01;20.90;;;14.23;;
38262;SDS011;24054;50.128;19.730;2022-12-18T09:26:55;20.58;;;13.88;;
38262;SDS011;24054;50.128;19.730;2022-12-18T09:29:22;20.17;;;14.13;;
38262;SDS011;24054;50.128;19.730;2022-12-18T09:31:50;21.13;;;14.40;;
38262;SDS011;24054;50.128;19.730;2022-12-18T09:34:17;22.33;;;14.27;;
38262;SDS011;24054;50.128;19.730;2022-12-18T09:36:46;20.88;;;14.52;;
38262;SDS011;24054;50.128;19.730;2022-12-18T09:39:14;21.58;;;14.82;;
38262;SDS011;24054;50.128;19.730;2022-12-18T09:41:43;19.92;;;13.48;;
38262;SDS011;24054;50.128;19.730;2022-12-18T09:44:15;21.45;;;14.70;;
38262;SDS011;24054;50.128;19.730;2022-12-18T09:46:47;20.60;;;13.90;;
38262;SDS011;24054;50.128;19.730;2022-12-18T09:49:21;22.58;;;13.60;;
38262;SDS011;24054;50.128;19.730;2022-12-18T09:51:54;21.15;;;14.18;;
38262;SDS011;24054;50.128;19.730;2022-12-18T09:54:29;20.65;;;13.77;;
38262;SDS011;24054;50.128;19.730;2022-12-18T09:57:02;25.42;;;14.27;;
38262;SDS011;24054;50.128;19.730;2022-12-18T09:59:30;20.80;;;13.77;;
38262;SDS011;24054;50.128;19.730;2022-12-18T10:02:09;19.27;;;12.98;;
38262;SDS011;24054;50.128;19.730;2022-12-18T10:04:41;20.17;;;13.75;;
38262;SDS011;24054;50.128;19.730;2022-12-18T10:07:10;20.17;;;13.07;;
38262;SDS011;24054;50.128;19.730;2022-12-18T10:09:46;21.73;;;13.02;;
38262;SDS011;24054;50.128;19.730;2022-12-18T10:12:21;18.80;;;13.45;;
38262;SDS011;24054;50.128;19.730;2022-12-18T10:14:56;17.85;;;12.77;;
38262;SDS011;24054;50.128;19.730;2022-12-18T10:17:31;18.65;;;12.50;;
38262;SDS011;24054;50.128;19.730;2022-12-18T10:20:07;22.40;;;13.32;;
38262;SDS011;24054;50.128;19.730;2022-12-18T10:22:42;17.20;;;12.40;;
38262;SDS011;24054;50.128;19.730;2022-12-18T10:25:21;19.90;;;13.27;;
38262;SDS011;24054;50.128;19.730;2022-12-18T10:27:51;17.63;;;11.70;;
38262;SDS011;24054;50.128;19.730;2022-12-18T10:30:22;19.80;;;12.95;;
38262;SDS011;24054;50.128;19.730;2022-12-18T10:32:52;18.15;;;12.27;;
38262;SDS011;24054;50.128;19.730;2022-12-18T10:35:21;18.38;;;12.52;;
38262;SDS011;24054;50.128;19.730;2022-12-18T10:38:00;16.77;;;11.98;;
38262;SDS011;24054;50.128;19.730;2022-12-18T10:40:31;17.17;;;11.95;;
38262;SDS011;24054;50.128;19.730;2022-12-18T10:43:05;17.42;;;12.52;;
38262;SDS011;24054;50.128;19.730;2022-12-18T10:45:37;16.88;;;12.18;;
38262;SDS011;24054;50.128;19.730;2022-12-18T10:48:04;17.58;;;11.70;;
38262;SDS011;24054;50.128;19.730;2022-12-18T10:50:46;17.42;;;11.85;;
38262;SDS011;24054;50.128;19.730;2022-12-18T10:53:19;16.77;;;11.98;;
38262;SDS011;24054;50.128;19.730;2022-12-18T10:55:49;19.20;;;11.75;;
38262;SDS011;24054;50.128;19.730;2022-12-18T10:58:21;16.73;;;11.82;;
38262;SDS011;24054;50.128;19.730;2022-12-18T11:01:04;15.02;;;10.95;;
38262;SDS011;24054;50.128;19.730;2022-12-18T11:03:35;14.90;;;11.18;;
38262;SDS011;24054;50.128;19.730;2022-12-18T11:06:05;17.80;;;11.02;;
38262;SDS011;24054;50.128;19.730;2022-12-18T11:08:34;17.80;;;11.77;;
38262;SDS011;24054;50.128;19.730;2022-12-18T11:11:03;16.02;;;11.48;;
38262;SDS011;24054;50.128;19.730;2022-12-18T11:13:42;16.67;;;11.35;;
38262;SDS011;24054;50.128;19.730;2022-12-18T11:16:20;16.60;;;11.38;;
38262;SDS011;24054;50.128;19.730;2022-12-18T11:18:48;15.52;;;11.27;;
38262;SDS011;24054;50.128;19.730;2022-12-18T11:21:16;15.85;;;11.98;;
38262;SDS011;24054;50.128;19.730;2022-12-18T11:23:46;15.68;;;10.77;;
38262;SDS011;24054;50.128;19.730;2022-12-18T11:26:17;15.35;;;11.25;;
38262;SDS011;24054;50.128;19.730;2022-12-18T11:28:46;15.02;;;10.93;;
38262;SDS011;24054;50.128;19.730;2022-12-18T11:31:23;16.33;;;11.32;;
38262;SDS011;24054;50.128;19.730;2022-12-18T11:34:02;14.65;;;10.45;;
38262;SDS011;24054;50.128;19.730;2022-12-18T11:36:38;14.82;;;10.23;;
38262;SDS011;24054;50.128;19.730;2022-12-18T11:39:10;19.38;;;10.80;;
38262;SDS011;24054;50.128;19.730;2022-12-18T11:41:45;17.55;;;11.30;;
38262;SDS011;24054;50.128;19.730;2022-12-18T11:44:38;15.82;;;11.55;;
38262;SDS011;24054;50.128;19.730;2022-12-18T11:47:14;14.70;;;10.13;;
38262;SDS011;24054;50.128;19.730;2022-12-18T11:49:48;14.35;;;10.60;;
38262;SDS011;24054;50.128;19.730;2022-12-18T11:52:16;15.20;;;10.27;;
38262;SDS011;24054;50.128;19.730;2022-12-18T11:54:50;14.38;;;10.60;;
38262;SDS011;24054;50.128;19.730;2022-12-18T11:57:23;15.40;;;10.52;;
38262;SDS011;24054;50.128;19.730;2022-12-18T12:00:01;15.73;;;11.05;;
38262;SDS011;24054;50.128;19.730;2022-12-18T12:02:38;15.30;;;10.73;;
38262;SDS011;24054;50.128;19.730;2022-12-18T12:05:19;13.40;;;10.77;;
38262;SDS011;24054;50.128;19.730;2022-12-18T12:07:56;13.32;;;10.45;;
38262;SDS011;24054;50.128;19.730;2022-12-18T12:10:32;14.32;;;10.85;;
38262;SDS011;24054;50.128;19.730;2022-12-18T12:13:14;14.10;;;10.73;;
38262;SDS011;24054;50.128;19.730;2022-12-18T12:15:57;15.00;;;11.85;;
38262;SDS011;24054;50.128;19.730;2022-12-18T12:18:40;19.48;;;12.40;;
38262;SDS011;24054;50.128;19.730;2022-12-18T12:21:19;19.60;;;13.25;;
38262;SDS011;24054;50.128;19.730;2022-12-18T12:23:58;23.45;;;12.88;;
38262;SDS011;24054;50.128;19.730;2022-12-18T12:26:33;18.58;;;12.85;;
38262;SDS011;24054;50.128;19.730;2022-12-18T12:29:13;16.98;;;12.23;;
38262;SDS011;24054;50.128;19.730;2022-12-18T12:31:59;17.13;;;13.10;;
38262;SDS011;24054;50.128;19.730;2022-12-18T12:34:41;17.58;;;12.77;;
38262;SDS011;24054;50.128;19.730;2022-12-18T12:37:22;18.45;;;13.43;;
38262;SDS011;24054;50.128;19.730;2022-12-18T12:40:00;19.73;;;13.15;;
38262;SDS011;24054;50.128;19.730;2022-12-18T12:42:30;20.08;;;13.65;;
38262;SDS011;24054;50.128;19.730;2022-12-18T12:45:20;19.00;;;13.73;;
38262;SDS011;24054;50.128;19.730;2022-12-18T12:47:53;21.92;;;13.07;;
38262;SDS011;24054;50.128;19.730;2022-12-18T12:50:22;21.20;;;13.65;;
38262;SDS011;24054;50.128;19.730;2022-12-18T12:52:51;16.88;;;13.32;;
38262;SDS011;24054;50.128;19.730;2022-12-18T12:55:22;19.92;;;13.45;;
38262;SDS011;24054;50.128;19.730;2022-12-18T12:57:59;17.42;;;12.85;;
38262;SDS011;24054;50.128;19.730;2022-12-18T13:00:39;15.68;;;12.65;;
38262;SDS011;24054;50.128;19.730;2022-12-18T13:03:14;19.10;;;12.93;;
38262;SDS011;24054;50.128;19.730;2022-12-18T13:05:46;18.73;;;13.80;;
38262;SDS011;24054;50.128;19.730;2022-12-18T13:08:22;19.48;;;13.98;;
38262;SDS011;24054;50.128;19.730;2022-12-18T13:10:51;18.95;;;13.27;;
38262;SDS011;24054;50.128;19.730;2022-12-18T13:13:47;21.33;;;14.32;;
38262;SDS011;24054;50.128;19.730;2022-12-18T13:16:16;17.83;;;13.10;;
38262;SDS011;24054;50.128;19.730;2022-12-18T13:18:48;16.92;;;13.13;;
38262;SDS011;24054;50.128;19.730;2022-12-18T13:21:19;18.20;;;13.52;;
38262;SDS011;24054;50.128;19.730;2022-12-18T13:23:50;20.75;;;14.18;;
38262;SDS011;24054;50.128;19.730;2022-12-18T13:26:30;20.27;;;14.23;;
38262;SDS011;24054;50.128;19.730;2022-12-18T13:28:59;22.13;;;14.65;;
38262;SDS011;24054;50.128;19.730;2022-12-18T13:34:27;19.67;;;13.57;;
38262;SDS011;24054;50.128;19.730;2022-12-18T13:36:56;25.98;;;17.00;;
38262;SDS011;24054;50.128;19.730;2022-12-18T13:39:39;28.10;;;17.20;;
38262;SDS011;24054;50.128;19.730;2022-12-18T13:48:28;35.70;;;21.40;;
38262;SDS011;24054;50.128;19.730;2022-12-18T13:51:01;34.03;;;20.77;;
38262;SDS011;24054;50.128;19.730;2022-12-18T13:53:33;35.65;;;21.17;;
38262;SDS011;24054;50.128;19.730;2022-12-18T13:56:04;35.03;;;20.92;;
38262;SDS011;24054;50.128;19.730;2022-12-18T13:58:32;34.60;;;20.40;;
38262;SDS011;24054;50.128;19.730;2022-12-18T14:00:59;30.30;;;19.95;;
38262;SDS011;24054;50.128;19.730;2022-12-18T14:03:31;34.20;;;20.05;;
38262;SDS011;24054;50.128;19.730;2022-12-18T14:08:37;30.77;;;19.50;;
38262;SDS011;24054;50.128;19.730;2022-12-18T14:11:06;30.13;;;18.75;;
38262;SDS011;24054;50.128;19.730;2022-12-18T14:13:38;31.58;;;19.58;;
38262;SDS011;24054;50.128;19.730;2022-12-18T14:16:11;28.60;;;18.85;;
38262;SDS011;24054;50.128;19.730;2022-12-18T14:18:43;33.47;;;19.33;;
38262;SDS011;24054;50.128;19.730;2022-12-18T14:21:18;29.40;;;18.50;;
38262;SDS011;24054;50.128;19.730;2022-12-18T14:23:48;29.55;;;18.45;;
38262;SDS011;24054;50.128;19.730;2022-12-18T14:26:23;30.05;;;19.83;;
38262;SDS011;24054;50.128;19.730;2022-12-18T14:28:53;30.08;;;19.00;;
38262;SDS011;24054;50.128;19.730;2022-12-18T14:31:21;28.02;;;17.75;;
38262;SDS011;24054;50.128;19.730;2022-12-18T14:33:52;31.48;;;18.65;;
38262;SDS011;24054;50.128;19.730;2022-12-18T14:36:21;30.92;;;18.75;;
38262;SDS011;24054;50.128;19.730;2022-12-18T14:38:51;26.17;;;18.45;;
38262;SDS011;24054;50.128;19.730;2022-12-18T14:41:20;29.38;;;18.85;;
38262;SDS011;24054;50.128;19.730;2022-12-18T14:43:48;25.67;;;17.65;;
38262;SDS011;24054;50.128;19.730;2022-12-18T14:46:27;28.08;;;17.70;;
38262;SDS011;24054;50.128;19.730;2022-12-18T14:48:59;29.40;;;18.90;;